sensor_id;sensor_type;location;lat;lon;timestamp;P1;durP1;ratioP1;P2;durP2;ratioP2
76693;SDS011;65625;52.136;5.424;2023-03-01T00:01:15;9.65;;;4.93;;
76693;SDS011;65625;52.136;5.424;2023-03-01T00:03:46;12.55;;;5.97;;
76693;SDS011;65625;52.136;5.424;2023-03-01T00:06:13;11.77;;;5.82;;
76693;SDS011;65625;52.136;5.424;2023-03-01T00:08:40;10.63;;;5.43;;
76693;SDS011;65625;52.136;5.424;2023-03-01T00:13:40;12.13;;;5.45;;
76693;SDS011;65625;52.136;5.424;2023-03-01T00:16:09;12.95;;;5.32;;
76693;SDS011;65625;52.136;5.424;2023-03-01T00:18:38;11.00;;;5.88;;
76693;SDS011;65625;52.136;5.424;2023-03-01T00:21:05;13.45;;;5.82;;
76693;SDS011;65625;52.136;5.424;2023-03-01T00:23:33;11.40;;;6.13;;
76693;SDS011;65625;52.136;5.424;2023-03-01T00:26:01;11.50;;;5.43;;
76693;SDS011;65625;52.136;5.424;2023-03-01T00:28:28;14.85;;;6.32;;
76693;SDS011;65625;52.136;5.424;2023-03-01T00:30:54;16.67;;;6.28;;
76693;SDS011;65625;52.136;5.424;2023-03-01T00:33:21;13.68;;;6.43;;
76693;SDS011;65625;52.136;5.424;2023-03-01T00:35:47;12.13;;;5.78;;
76693;SDS011;65625;52.136;5.424;2023-03-01T00:38:14;12.52;;;6.10;;
76693;SDS011;65625;52.136;5.424;2023-03-01T00:40:40;12.30;;;6.38;;
76693;SDS011;65625;52.136;5.424;2023-03-01T00:43:07;13.60;;;5.18;;
76693;SDS011;65625;52.136;5.424;2023-03-01T00:45:35;11.85;;;5.72;;
76693;SDS011;65625;52.136;5.424;2023-03-01T00:48:02;15.63;;;6.43;;
76693;SDS011;65625;52.136;5.424;2023-03-01T00:50:28;14.30;;;7.07;;
76693;SDS011;65625;52.136;5.424;2023-03-01T00:52:55;11.02;;;5.70;;
76693;SDS011;65625;52.136;5.424;2023-03-01T00:55:22;11.95;;;6.13;;
76693;SDS011;65625;52.136;5.424;2023-03-01T00:57:49;12.73;;;6.38;;
76693;SDS011;65625;52.136;5.424;2023-03-01T01:00:15;12.68;;;5.63;;
76693;SDS011;65625;52.136;5.424;2023-03-01T01:02:42;11.90;;;5.88;;
76693;SDS011;65625;52.136;5.424;2023-03-01T01:05:09;16.02;;;6.43;;
76693;SDS011;65625;52.136;5.424;2023-03-01T01:07:36;9.85;;;5.70;;
76693;SDS011;65625;52.136;5.424;2023-03-01T01:10:03;14.13;;;6.13;;
76693;SDS011;65625;52.136;5.424;2023-03-01T01:12:30;12.70;;;6.07;;
76693;SDS011;65625;52.136;5.424;2023-03-01T01:14:57;10.65;;;6.28;;
76693;SDS011;65625;52.136;5.424;2023-03-01T01:17:24;14.35;;;5.43;;
76693;SDS011;65625;52.136;5.424;2023-03-01T01:19:51;13.35;;;6.28;;
76693;SDS011;65625;52.136;5.424;2023-03-01T01:22:17;12.40;;;6.35;;
76693;SDS011;65625;52.136;5.424;2023-03-01T01:24:44;13.00;;;6.50;;
76693;SDS011;65625;52.136;5.424;2023-03-01T01:27:10;12.95;;;6.18;;
76693;SDS011;65625;52.136;5.424;2023-03-01T01:29:37;13.63;;;6.13;;
76693;SDS011;65625;52.136;5.424;2023-03-01T01:32:03;12.75;;;6.03;;
76693;SDS011;65625;52.136;5.424;2023-03-01T01:34:30;14.45;;;6.82;;
76693;SDS011;65625;52.136;5.424;2023-03-01T01:36:57;10.48;;;6.30;;
76693;SDS011;65625;52.136;5.424;2023-03-01T01:39:23;11.60;;;5.90;;
76693;SDS011;65625;52.136;5.424;2023-03-01T01:41:50;13.48;;;6.13;;
76693;SDS011;65625;52.136;5.424;2023-03-01T01:44:21;11.77;;;6.22;;
76693;SDS011;65625;52.136;5.424;2023-03-01T01:47:00;13.02;;;6.32;;
76693;SDS011;65625;52.136;5.424;2023-03-01T01:49:43;15.55;;;7.15;;
76693;SDS011;65625;52.136;5.424;2023-03-01T01:52:15;14.00;;;5.50;;
76693;SDS011;65625;52.136;5.424;2023-03-01T01:54:46;14.68;;;6.30;;
76693;SDS011;65625;52.136;5.424;2023-03-01T01:59:50;12.35;;;5.45;;
76693;SDS011;65625;52.136;5.424;2023-03-01T02:02:20;11.60;;;5.70;;
76693;SDS011;65625;52.136;5.424;2023-03-01T02:04:48;12.45;;;6.30;;
76693;SDS011;65625;52.136;5.424;2023-03-01T02:07:22;16.52;;;5.90;;
76693;SDS011;65625;52.136;5.424;2023-03-01T02:09:52;14.00;;;6.53;;
76693;SDS011;65625;52.136;5.424;2023-03-01T02:12:20;12.45;;;6.28;;
76693;SDS011;65625;52.136;5.424;2023-03-01T02:14:50;15.88;;;6.85;;
76693;SDS011;65625;52.136;5.424;2023-03-01T02:17:17;13.38;;;6.47;;
76693;SDS011;65625;52.136;5.424;2023-03-01T02:19:52;13.85;;;6.80;;
76693;SDS011;65625;52.136;5.424;2023-03-01T02:22:34;13.63;;;6.70;;
76693;SDS011;65625;52.136;5.424;2023-03-01T02:27:48;12.35;;;6.05;;
76693;SDS011;65625;52.136;5.424;2023-03-01T02:30:19;18.38;;;7.07;;
76693;SDS011;65625;52.136;5.424;2023-03-01T02:32:47;13.10;;;6.88;;
76693;SDS011;65625;52.136;5.424;2023-03-01T02:35:16;14.27;;;6.75;;
76693;SDS011;65625;52.136;5.424;2023-03-01T02:37:44;14.13;;;6.60;;
76693;SDS011;65625;52.136;5.424;2023-03-01T02:40:12;12.65;;;6.32;;
76693;SDS011;65625;52.136;5.424;2023-03-01T02:42:48;12.13;;;6.80;;
76693;SDS011;65625;52.136;5.424;2023-03-01T02:45:18;13.13;;;6.82;;
76693;SDS011;65625;52.136;5.424;2023-03-01T02:47:44;12.90;;;6.93;;
76693;SDS011;65625;52.136;5.424;2023-03-01T02:56:07;19.48;;;7.38;;
76693;SDS011;65625;52.136;5.424;2023-03-01T02:58:42;15.05;;;7.15;;
76693;SDS011;65625;52.136;5.424;2023-03-01T03:01:18;14.65;;;6.88;;
76693;SDS011;65625;52.136;5.424;2023-03-01T03:03:46;12.57;;;5.78;;
76693;SDS011;65625;52.136;5.424;2023-03-01T03:06:13;15.48;;;6.97;;
76693;SDS011;65625;52.136;5.424;2023-03-01T03:08:40;14.10;;;5.85;;
76693;SDS011;65625;52.136;5.424;2023-03-01T03:11:06;13.75;;;7.10;;
76693;SDS011;65625;52.136;5.424;2023-03-01T03:13:33;12.80;;;6.38;;
76693;SDS011;65625;52.136;5.424;2023-03-01T03:16:00;12.10;;;6.53;;
76693;SDS011;65625;52.136;5.424;2023-03-01T03:18:28;11.20;;;6.15;;
76693;SDS011;65625;52.136;5.424;2023-03-01T03:20:55;13.75;;;6.72;;
76693;SDS011;65625;52.136;5.424;2023-03-01T03:23:21;16.98;;;7.10;;
76693;SDS011;65625;52.136;5.424;2023-03-01T03:25:49;14.23;;;6.32;;
76693;SDS011;65625;52.136;5.424;2023-03-01T03:28:16;14.15;;;6.88;;
76693;SDS011;65625;52.136;5.424;2023-03-01T03:30:43;13.18;;;6.35;;
76693;SDS011;65625;52.136;5.424;2023-03-01T03:33:10;16.63;;;6.38;;
76693;SDS011;65625;52.136;5.424;2023-03-01T03:35:43;16.92;;;7.05;;
76693;SDS011;65625;52.136;5.424;2023-03-01T03:38:12;13.65;;;6.88;;
76693;SDS011;65625;52.136;5.424;2023-03-01T03:40:44;13.90;;;7.18;;
76693;SDS011;65625;52.136;5.424;2023-03-01T03:43:13;16.63;;;6.35;;
76693;SDS011;65625;52.136;5.424;2023-03-01T03:45:46;16.98;;;6.65;;
76693;SDS011;65625;52.136;5.424;2023-03-01T03:48:14;12.00;;;5.85;;
76693;SDS011;65625;52.136;5.424;2023-03-01T03:50:41;18.63;;;6.95;;
76693;SDS011;65625;52.136;5.424;2023-03-01T03:53:09;13.90;;;7.35;;
76693;SDS011;65625;52.136;5.424;2023-03-01T03:55:38;16.08;;;6.93;;
76693;SDS011;65625;52.136;5.424;2023-03-01T03:58:06;16.02;;;7.10;;
76693;SDS011;65625;52.136;5.424;2023-03-01T04:00:36;12.77;;;6.43;;
76693;SDS011;65625;52.136;5.424;2023-03-01T04:03:04;14.18;;;6.10;;
76693;SDS011;65625;52.136;5.424;2023-03-01T04:05:32;13.00;;;6.15;;
76693;SDS011;65625;52.136;5.424;2023-03-01T04:07:59;11.35;;;5.72;;
76693;SDS011;65625;52.136;5.424;2023-03-01T04:10:29;17.63;;;6.82;;
76693;SDS011;65625;52.136;5.424;2023-03-01T04:12:57;13.63;;;6.85;;
76693;SDS011;65625;52.136;5.424;2023-03-01T04:15:24;14.80;;;6.88;;
76693;SDS011;65625;52.136;5.424;2023-03-01T04:17:52;15.02;;;7.10;;
76693;SDS011;65625;52.136;5.424;2023-03-01T04:20:20;12.77;;;6.15;;
76693;SDS011;65625;52.136;5.424;2023-03-01T04:22:55;13.90;;;6.63;;
76693;SDS011;65625;52.136;5.424;2023-03-01T04:25:24;13.95;;;6.25;;
76693;SDS011;65625;52.136;5.424;2023-03-01T04:27:51;14.32;;;6.05;;
76693;SDS011;65625;52.136;5.424;2023-03-01T04:30:18;13.48;;;6.85;;
76693;SDS011;65625;52.136;5.424;2023-03-01T04:32:45;13.90;;;6.70;;
76693;SDS011;65625;52.136;5.424;2023-03-01T04:35:11;11.95;;;6.93;;
76693;SDS011;65625;52.136;5.424;2023-03-01T04:37:38;13.52;;;6.97;;
76693;SDS011;65625;52.136;5.424;2023-03-01T04:40:04;15.07;;;7.43;;
76693;SDS011;65625;52.136;5.424;2023-03-01T04:42:39;15.48;;;6.57;;
76693;SDS011;65625;52.136;5.424;2023-03-01T04:45:05;14.43;;;5.85;;
76693;SDS011;65625;52.136;5.424;2023-03-01T04:47:40;13.55;;;6.45;;
76693;SDS011;65625;52.136;5.424;2023-03-01T04:50:07;11.02;;;5.80;;
76693;SDS011;65625;52.136;5.424;2023-03-01T04:52:35;16.90;;;7.28;;
76693;SDS011;65625;52.136;5.424;2023-03-01T04:55:01;14.15;;;6.85;;
76693;SDS011;65625;52.136;5.424;2023-03-01T04:57:29;13.55;;;7.55;;
76693;SDS011;65625;52.136;5.424;2023-03-01T04:59:56;12.80;;;6.20;;
76693;SDS011;65625;52.136;5.424;2023-03-01T05:02:23;13.90;;;6.78;;
76693;SDS011;65625;52.136;5.424;2023-03-01T05:04:49;13.25;;;6.40;;
76693;SDS011;65625;52.136;5.424;2023-03-01T05:07:16;12.73;;;5.97;;
76693;SDS011;65625;52.136;5.424;2023-03-01T05:09:45;11.98;;;6.03;;
76693;SDS011;65625;52.136;5.424;2023-03-01T05:12:12;14.15;;;7.18;;
76693;SDS011;65625;52.136;5.424;2023-03-01T05:14:40;14.77;;;6.88;;
76693;SDS011;65625;52.136;5.424;2023-03-01T05:17:07;13.13;;;6.60;;
76693;SDS011;65625;52.136;5.424;2023-03-01T05:19:34;14.82;;;6.93;;
76693;SDS011;65625;52.136;5.424;2023-03-01T05:22:01;14.18;;;6.00;;
76693;SDS011;65625;52.136;5.424;2023-03-01T05:24:31;11.80;;;6.07;;
76693;SDS011;65625;52.136;5.424;2023-03-01T05:27:00;13.25;;;6.18;;
76693;SDS011;65625;52.136;5.424;2023-03-01T05:29:28;11.05;;;5.47;;
76693;SDS011;65625;52.136;5.424;2023-03-01T05:31:57;12.38;;;5.82;;
76693;SDS011;65625;52.136;5.424;2023-03-01T05:34:31;14.57;;;6.55;;
76693;SDS011;65625;52.136;5.424;2023-03-01T05:36:59;11.60;;;6.05;;
76693;SDS011;65625;52.136;5.424;2023-03-01T05:39:26;11.30;;;5.75;;
76693;SDS011;65625;52.136;5.424;2023-03-01T05:41:54;11.95;;;6.13;;
76693;SDS011;65625;52.136;5.424;2023-03-01T05:44:22;18.65;;;6.95;;
76693;SDS011;65625;52.136;5.424;2023-03-01T05:46:50;16.08;;;6.75;;
76693;SDS011;65625;52.136;5.424;2023-03-01T05:49:17;12.68;;;6.13;;
76693;SDS011;65625;52.136;5.424;2023-03-01T05:51:47;13.90;;;7.20;;
76693;SDS011;65625;52.136;5.424;2023-03-01T05:54:15;19.27;;;6.72;;
76693;SDS011;65625;52.136;5.424;2023-03-01T05:56:42;13.25;;;5.75;;
76693;SDS011;65625;52.136;5.424;2023-03-01T05:59:09;13.65;;;6.43;;
76693;SDS011;65625;52.136;5.424;2023-03-01T06:01:36;16.15;;;6.88;;
76693;SDS011;65625;52.136;5.424;2023-03-01T06:04:03;13.45;;;6.18;;
76693;SDS011;65625;52.136;5.424;2023-03-01T06:06:33;12.98;;;6.22;;
76693;SDS011;65625;52.136;5.424;2023-03-01T06:09:01;12.05;;;6.20;;
76693;SDS011;65625;52.136;5.424;2023-03-01T06:11:27;13.40;;;6.90;;
76693;SDS011;65625;52.136;5.424;2023-03-01T06:13:54;13.45;;;7.32;;
76693;SDS011;65625;52.136;5.424;2023-03-01T06:16:20;13.68;;;6.32;;
76693;SDS011;65625;52.136;5.424;2023-03-01T06:18:47;16.10;;;6.65;;
76693;SDS011;65625;52.136;5.424;2023-03-01T06:21:13;15.05;;;7.30;;
76693;SDS011;65625;52.136;5.424;2023-03-01T06:23:40;13.25;;;6.93;;
76693;SDS011;65625;52.136;5.424;2023-03-01T06:26:07;16.45;;;6.95;;
76693;SDS011;65625;52.136;5.424;2023-03-01T06:28:34;13.82;;;6.93;;
76693;SDS011;65625;52.136;5.424;2023-03-01T06:31:01;14.32;;;6.70;;
76693;SDS011;65625;52.136;5.424;2023-03-01T06:33:28;16.77;;;6.50;;
76693;SDS011;65625;52.136;5.424;2023-03-01T06:35:55;11.95;;;6.80;;
76693;SDS011;65625;52.136;5.424;2023-03-01T06:38:23;18.38;;;7.45;;
76693;SDS011;65625;52.136;5.424;2023-03-01T06:40:53;14.73;;;7.20;;
76693;SDS011;65625;52.136;5.424;2023-03-01T06:43:21;14.07;;;6.45;;
76693;SDS011;65625;52.136;5.424;2023-03-01T06:45:48;12.93;;;6.43;;
76693;SDS011;65625;52.136;5.424;2023-03-01T06:48:14;15.52;;;7.45;;
76693;SDS011;65625;52.136;5.424;2023-03-01T06:50:41;12.95;;;6.95;;
76693;SDS011;65625;52.136;5.424;2023-03-01T06:53:08;16.25;;;7.45;;
76693;SDS011;65625;52.136;5.424;2023-03-01T06:55:34;16.33;;;6.20;;
76693;SDS011;65625;52.136;5.424;2023-03-01T06:58:01;14.48;;;7.57;;
76693;SDS011;65625;52.136;5.424;2023-03-01T07:00:29;13.82;;;6.40;;
76693;SDS011;65625;52.136;5.424;2023-03-01T07:03:00;17.25;;;7.18;;
76693;SDS011;65625;52.136;5.424;2023-03-01T07:05:28;15.50;;;6.50;;
76693;SDS011;65625;52.136;5.424;2023-03-01T07:07:55;14.93;;;6.93;;
76693;SDS011;65625;52.136;5.424;2023-03-01T07:10:22;14.93;;;7.07;;
76693;SDS011;65625;52.136;5.424;2023-03-01T07:12:49;17.15;;;7.43;;
76693;SDS011;65625;52.136;5.424;2023-03-01T07:15:15;13.98;;;6.85;;
76693;SDS011;65625;52.136;5.424;2023-03-01T07:17:42;13.43;;;6.65;;
76693;SDS011;65625;52.136;5.424;2023-03-01T07:20:10;16.85;;;8.15;;
76693;SDS011;65625;52.136;5.424;2023-03-01T07:22:39;17.42;;;8.00;;
76693;SDS011;65625;52.136;5.424;2023-03-01T07:25:07;22.00;;;10.43;;
76693;SDS011;65625;52.136;5.424;2023-03-01T07:27:34;19.08;;;10.25;;
76693;SDS011;65625;52.136;5.424;2023-03-01T07:30:00;20.92;;;10.07;;
76693;SDS011;65625;52.136;5.424;2023-03-01T07:32:27;21.98;;;10.57;;
76693;SDS011;65625;52.136;5.424;2023-03-01T07:34:54;18.33;;;9.60;;
76693;SDS011;65625;52.136;5.424;2023-03-01T07:37:20;18.35;;;8.65;;
76693;SDS011;65625;52.136;5.424;2023-03-01T07:39:47;17.95;;;9.27;;
76693;SDS011;65625;52.136;5.424;2023-03-01T07:42:13;18.00;;;8.60;;
76693;SDS011;65625;52.136;5.424;2023-03-01T07:44:40;17.00;;;9.20;;
76693;SDS011;65625;52.136;5.424;2023-03-01T07:47:06;18.55;;;9.05;;
76693;SDS011;65625;52.136;5.424;2023-03-01T07:49:33;14.90;;;8.13;;
76693;SDS011;65625;52.136;5.424;2023-03-01T07:52:00;17.13;;;8.68;;
76693;SDS011;65625;52.136;5.424;2023-03-01T07:54:27;20.73;;;9.38;;
76693;SDS011;65625;52.136;5.424;2023-03-01T07:56:53;20.95;;;9.85;;
76693;SDS011;65625;52.136;5.424;2023-03-01T07:59:20;20.70;;;9.82;;
76693;SDS011;65625;52.136;5.424;2023-03-01T08:01:47;15.45;;;8.82;;
76693;SDS011;65625;52.136;5.424;2023-03-01T08:04:14;20.85;;;10.00;;
76693;SDS011;65625;52.136;5.424;2023-03-01T08:06:40;19.70;;;9.35;;
76693;SDS011;65625;52.136;5.424;2023-03-01T08:09:07;18.50;;;8.95;;
76693;SDS011;65625;52.136;5.424;2023-03-01T08:11:34;16.73;;;8.63;;
76693;SDS011;65625;52.136;5.424;2023-03-01T08:14:01;19.95;;;8.82;;
76693;SDS011;65625;52.136;5.424;2023-03-01T08:16:28;15.98;;;8.65;;
76693;SDS011;65625;52.136;5.424;2023-03-01T08:18:55;15.35;;;7.95;;
76693;SDS011;65625;52.136;5.424;2023-03-01T08:21:22;17.45;;;7.72;;
76693;SDS011;65625;52.136;5.424;2023-03-01T08:23:49;17.95;;;8.52;;
76693;SDS011;65625;52.136;5.424;2023-03-01T08:26:17;16.20;;;7.15;;
76693;SDS011;65625;52.136;5.424;2023-03-01T08:28:45;15.10;;;7.00;;
76693;SDS011;65625;52.136;5.424;2023-03-01T08:31:17;14.93;;;6.05;;
76693;SDS011;65625;52.136;5.424;2023-03-01T08:33:45;12.80;;;6.38;;
76693;SDS011;65625;52.136;5.424;2023-03-01T08:36:17;12.32;;;5.57;;
76693;SDS011;65625;52.136;5.424;2023-03-01T08:38:44;13.60;;;5.90;;
76693;SDS011;65625;52.136;5.424;2023-03-01T08:41:11;13.65;;;6.53;;
76693;SDS011;65625;52.136;5.424;2023-03-01T08:43:38;12.35;;;6.18;;
76693;SDS011;65625;52.136;5.424;2023-03-01T08:46:04;11.70;;;5.68;;
76693;SDS011;65625;52.136;5.424;2023-03-01T08:48:31;10.95;;;6.07;;
76693;SDS011;65625;52.136;5.424;2023-03-01T08:51:06;14.10;;;5.82;;
76693;SDS011;65625;52.136;5.424;2023-03-01T08:53:33;11.10;;;5.50;;
76693;SDS011;65625;52.136;5.424;2023-03-01T08:56:00;9.25;;;5.07;;
76693;SDS011;65625;52.136;5.424;2023-03-01T08:58:28;9.35;;;4.15;;
76693;SDS011;65625;52.136;5.424;2023-03-01T09:00:55;12.25;;;5.28;;
76693;SDS011;65625;52.136;5.424;2023-03-01T09:03:25;8.80;;;4.50;;
76693;SDS011;65625;52.136;5.424;2023-03-01T09:05:53;8.30;;;4.05;;
76693;SDS011;65625;52.136;5.424;2023-03-01T09:08:19;9.07;;;5.07;;
76693;SDS011;65625;52.136;5.424;2023-03-01T09:10:46;8.65;;;5.00;;
76693;SDS011;65625;52.136;5.424;2023-03-01T09:13:12;7.93;;;4.43;;
76693;SDS011;65625;52.136;5.424;2023-03-01T09:15:39;8.48;;;5.05;;
76693;SDS011;65625;52.136;5.424;2023-03-01T09:18:05;9.82;;;5.63;;
76693;SDS011;65625;52.136;5.424;2023-03-01T09:20:32;8.85;;;5.13;;
76693;SDS011;65625;52.136;5.424;2023-03-01T09:22:58;8.02;;;5.38;;
76693;SDS011;65625;52.136;5.424;2023-03-01T09:25:25;6.75;;;4.30;;
76693;SDS011;65625;52.136;5.424;2023-03-01T09:27:52;7.32;;;4.72;;
76693;SDS011;65625;52.136;5.424;2023-03-01T09:30:19;8.90;;;4.65;;
76693;SDS011;65625;52.136;5.424;2023-03-01T09:32:47;7.18;;;4.88;;
76693;SDS011;65625;52.136;5.424;2023-03-01T09:35:13;5.72;;;3.72;;
76693;SDS011;65625;52.136;5.424;2023-03-01T09:37:40;7.45;;;4.22;;
76693;SDS011;65625;52.136;5.424;2023-03-01T09:40:15;7.82;;;4.82;;
76693;SDS011;65625;52.136;5.424;2023-03-01T09:42:48;6.18;;;4.30;;
76693;SDS011;65625;52.136;5.424;2023-03-01T09:45:21;6.10;;;4.15;;
76693;SDS011;65625;52.136;5.424;2023-03-01T09:47:54;6.63;;;4.22;;
76693;SDS011;65625;52.136;5.424;2023-03-01T09:50:22;6.03;;;4.13;;
76693;SDS011;65625;52.136;5.424;2023-03-01T09:53:02;7.57;;;4.40;;
76693;SDS011;65625;52.136;5.424;2023-03-01T09:55:39;5.30;;;3.10;;
76693;SDS011;65625;52.136;5.424;2023-03-01T10:07:17;4.30;;;2.75;;
76693;SDS011;65625;52.136;5.424;2023-03-01T10:09:55;6.68;;;3.00;;
76693;SDS011;65625;52.136;5.424;2023-03-01T10:12:23;5.10;;;3.03;;
76693;SDS011;65625;52.136;5.424;2023-03-01T10:15:31;5.80;;;2.88;;
76693;SDS011;65625;52.136;5.424;2023-03-01T10:18:30;7.07;;;2.90;;
76693;SDS011;65625;52.136;5.424;2023-03-01T10:21:07;5.75;;;3.20;;
76693;SDS011;65625;52.136;5.424;2023-03-01T10:23:40;5.90;;;3.10;;
76693;SDS011;65625;52.136;5.424;2023-03-01T10:28:44;4.50;;;2.75;;
76693;SDS011;65625;52.136;5.424;2023-03-01T10:31:21;5.97;;;3.30;;
76693;SDS011;65625;52.136;5.424;2023-03-01T10:36:22;6.28;;;3.35;;
76693;SDS011;65625;52.136;5.424;2023-03-01T10:38:53;4.75;;;3.17;;
76693;SDS011;65625;52.136;5.424;2023-03-01T10:41:23;5.25;;;2.92;;
76693;SDS011;65625;52.136;5.424;2023-03-01T10:43:58;3.80;;;2.40;;
76693;SDS011;65625;52.136;5.424;2023-03-01T10:46:30;3.90;;;2.35;;
76693;SDS011;65625;52.136;5.424;2023-03-01T10:49:12;5.40;;;2.63;;
76693;SDS011;65625;52.136;5.424;2023-03-01T10:51:42;4.72;;;2.45;;
76693;SDS011;65625;52.136;5.424;2023-03-01T10:54:29;4.57;;;2.40;;
76693;SDS011;65625;52.136;5.424;2023-03-01T10:56:59;3.45;;;1.73;;
76693;SDS011;65625;52.136;5.424;2023-03-01T10:59:31;6.22;;;2.35;;
76693;SDS011;65625;52.136;5.424;2023-03-01T11:04:56;4.78;;;2.00;;
76693;SDS011;65625;52.136;5.424;2023-03-01T11:07:25;4.22;;;2.50;;
76693;SDS011;65625;52.136;5.424;2023-03-01T11:09:52;4.15;;;2.50;;
76693;SDS011;65625;52.136;5.424;2023-03-01T11:12:19;6.00;;;2.92;;
76693;SDS011;65625;52.136;5.424;2023-03-01T11:14:50;4.00;;;1.92;;
76693;SDS011;65625;52.136;5.424;2023-03-01T11:17:24;8.27;;;2.30;;
76693;SDS011;65625;52.136;5.424;2023-03-01T11:20:05;4.00;;;2.25;;
76693;SDS011;65625;52.136;5.424;2023-03-01T11:22:47;4.55;;;2.00;;
76693;SDS011;65625;52.136;5.424;2023-03-01T11:25:19;4.97;;;2.30;;
76693;SDS011;65625;52.136;5.424;2023-03-01T11:27:51;3.75;;;2.08;;
76693;SDS011;65625;52.136;5.424;2023-03-01T11:38:26;3.80;;;1.67;;
76693;SDS011;65625;52.136;5.424;2023-03-01T11:41:01;4.90;;;2.08;;
76693;SDS011;65625;52.136;5.424;2023-03-01T12:03:19;3.50;;;1.90;;
76693;SDS011;65625;52.136;5.424;2023-03-01T12:06:16;4.20;;;2.30;;
76693;SDS011;65625;52.136;5.424;2023-03-01T12:17:41;5.95;;;2.60;;
76693;SDS011;65625;52.136;5.424;2023-03-01T12:20:20;3.15;;;1.80;;
76693;SDS011;65625;52.136;5.424;2023-03-01T12:34:27;4.10;;;2.00;;
76693;SDS011;65625;52.136;5.424;2023-03-01T12:46:02;5.45;;;2.45;;
76693;SDS011;65625;52.136;5.424;2023-03-01T12:51:54;4.03;;;2.08;;
76693;SDS011;65625;52.136;5.424;2023-03-01T12:54:28;5.35;;;2.15;;
76693;SDS011;65625;52.136;5.424;2023-03-01T12:56:58;2.95;;;1.63;;
76693;SDS011;65625;52.136;5.424;2023-03-01T13:04:43;4.45;;;2.15;;
76693;SDS011;65625;52.136;5.424;2023-03-01T13:10:11;4.63;;;2.55;;
76693;SDS011;65625;52.136;5.424;2023-03-01T13:17:58;4.22;;;1.58;;
76693;SDS011;65625;52.136;5.424;2023-03-01T13:20:31;4.13;;;2.33;;
76693;SDS011;65625;52.136;5.424;2023-03-01T13:23:08;4.80;;;2.45;;
76693;SDS011;65625;52.136;5.424;2023-03-01T13:26:00;5.28;;;2.55;;
76693;SDS011;65625;52.136;5.424;2023-03-01T13:31:02;4.65;;;2.38;;
76693;SDS011;65625;52.136;5.424;2023-03-01T13:33:50;4.25;;;2.17;;
76693;SDS011;65625;52.136;5.424;2023-03-01T13:44:38;4.97;;;2.50;;
76693;SDS011;65625;52.136;5.424;2023-03-01T13:47:20;4.78;;;2.30;;
76693;SDS011;65625;52.136;5.424;2023-03-01T13:49:48;4.47;;;1.90;;
76693;SDS011;65625;52.136;5.424;2023-03-01T13:55:03;3.45;;;1.50;;
76693;SDS011;65625;52.136;5.424;2023-03-01T13:57:41;3.90;;;2.08;;
76693;SDS011;65625;52.136;5.424;2023-03-01T14:03:13;3.40;;;1.55;;
76693;SDS011;65625;52.136;5.424;2023-03-01T14:05:50;6.20;;;2.13;;
76693;SDS011;65625;52.136;5.424;2023-03-01T14:08:40;2.80;;;1.45;;
76693;SDS011;65625;52.136;5.424;2023-03-01T14:13:45;4.30;;;2.30;;
76693;SDS011;65625;52.136;5.424;2023-03-01T14:19:30;3.22;;;1.65;;
76693;SDS011;65625;52.136;5.424;2023-03-01T14:24:55;4.03;;;2.05;;
76693;SDS011;65625;52.136;5.424;2023-03-01T14:27:28;4.18;;;2.00;;
76693;SDS011;65625;52.136;5.424;2023-03-01T14:30:00;3.85;;;1.63;;
76693;SDS011;65625;52.136;5.424;2023-03-01T14:32:38;4.90;;;2.38;;
76693;SDS011;65625;52.136;5.424;2023-03-01T14:35:21;5.57;;;2.45;;
76693;SDS011;65625;52.136;5.424;2023-03-01T14:37:56;4.22;;;2.28;;
76693;SDS011;65625;52.136;5.424;2023-03-01T14:42:56;3.25;;;1.83;;
76693;SDS011;65625;52.136;5.424;2023-03-01T14:45:26;3.70;;;1.80;;
76693;SDS011;65625;52.136;5.424;2023-03-01T14:47:55;4.60;;;2.50;;
76693;SDS011;65625;52.136;5.424;2023-03-01T14:50:27;9.82;;;2.20;;
76693;SDS011;65625;52.136;5.424;2023-03-01T14:53:00;5.50;;;2.38;;
76693;SDS011;65625;52.136;5.424;2023-03-01T14:58:15;4.32;;;2.17;;
76693;SDS011;65625;52.136;5.424;2023-03-01T15:00:50;4.50;;;2.00;;
76693;SDS011;65625;52.136;5.424;2023-03-01T15:05:56;5.43;;;2.42;;
76693;SDS011;65625;52.136;5.424;2023-03-01T15:08:24;5.75;;;2.83;;
76693;SDS011;65625;52.136;5.424;2023-03-01T15:11:15;3.00;;;1.60;;
76693;SDS011;65625;52.136;5.424;2023-03-01T15:13:44;4.93;;;2.50;;
76693;SDS011;65625;52.136;5.424;2023-03-01T15:16:33;7.32;;;2.55;;
76693;SDS011;65625;52.136;5.424;2023-03-01T15:19:04;4.65;;;2.83;;
76693;SDS011;65625;52.136;5.424;2023-03-01T15:21:33;4.40;;;2.33;;
76693;SDS011;65625;52.136;5.424;2023-03-01T15:24:05;4.00;;;2.00;;
76693;SDS011;65625;52.136;5.424;2023-03-01T15:26:55;5.85;;;1.98;;
76693;SDS011;65625;52.136;5.424;2023-03-01T15:29:29;4.57;;;2.17;;
76693;SDS011;65625;52.136;5.424;2023-03-01T15:32:00;3.05;;;1.85;;
76693;SDS011;65625;52.136;5.424;2023-03-01T15:34:35;8.30;;;2.05;;
76693;SDS011;65625;52.136;5.424;2023-03-01T15:37:15;4.35;;;2.22;;
76693;SDS011;65625;52.136;5.424;2023-03-01T15:40:01;4.20;;;2.15;;
76693;SDS011;65625;52.136;5.424;2023-03-01T15:47:47;2.70;;;1.48;;
76693;SDS011;65625;52.136;5.424;2023-03-01T15:50:29;6.60;;;2.10;;
76693;SDS011;65625;52.136;5.424;2023-03-01T15:52:59;7.50;;;2.40;;
76693;SDS011;65625;52.136;5.424;2023-03-01T15:55:28;3.75;;;2.17;;
76693;SDS011;65625;52.136;5.424;2023-03-01T15:58:00;6.78;;;1.92;;
76693;SDS011;65625;52.136;5.424;2023-03-01T16:00:33;4.65;;;2.15;;
76693;SDS011;65625;52.136;5.424;2023-03-01T16:02:59;6.25;;;2.53;;
76693;SDS011;65625;52.136;5.424;2023-03-01T16:05:28;3.90;;;1.77;;
76693;SDS011;65625;52.136;5.424;2023-03-01T16:08:00;3.65;;;1.98;;
76693;SDS011;65625;52.136;5.424;2023-03-01T16:10:27;6.50;;;2.88;;
76693;SDS011;65625;52.136;5.424;2023-03-01T16:12:54;5.60;;;2.70;;
76693;SDS011;65625;52.136;5.424;2023-03-01T16:15:27;5.50;;;2.08;;
76693;SDS011;65625;52.136;5.424;2023-03-01T16:17:58;7.63;;;3.00;;
76693;SDS011;65625;52.136;5.424;2023-03-01T16:20:25;5.85;;;2.15;;
76693;SDS011;65625;52.136;5.424;2023-03-01T16:22:57;5.95;;;2.65;;
76693;SDS011;65625;52.136;5.424;2023-03-01T16:25:26;4.72;;;2.50;;
76693;SDS011;65625;52.136;5.424;2023-03-01T16:27:53;7.80;;;2.55;;
76693;SDS011;65625;52.136;5.424;2023-03-01T16:30:20;6.50;;;3.33;;
76693;SDS011;65625;52.136;5.424;2023-03-01T16:32:48;7.00;;;2.67;;
76693;SDS011;65625;52.136;5.424;2023-03-01T16:35:16;6.03;;;2.92;;
76693;SDS011;65625;52.136;5.424;2023-03-01T16:37:45;8.20;;;2.78;;
76693;SDS011;65625;52.136;5.424;2023-03-01T16:40:19;5.78;;;2.80;;
76693;SDS011;65625;52.136;5.424;2023-03-01T16:42:50;6.43;;;2.42;;
76693;SDS011;65625;52.136;5.424;2023-03-01T16:45:18;7.88;;;3.28;;
76693;SDS011;65625;52.136;5.424;2023-03-01T16:47:50;7.53;;;3.15;;
76693;SDS011;65625;52.136;5.424;2023-03-01T16:50:20;6.50;;;3.03;;
76693;SDS011;65625;52.136;5.424;2023-03-01T16:52:50;6.85;;;2.90;;
76693;SDS011;65625;52.136;5.424;2023-03-01T16:55:16;6.18;;;2.17;;
76693;SDS011;65625;52.136;5.424;2023-03-01T16:57:43;7.65;;;2.58;;
76693;SDS011;65625;52.136;5.424;2023-03-01T17:00:10;4.70;;;3.03;;
76693;SDS011;65625;52.136;5.424;2023-03-01T17:05:07;6.43;;;2.72;;
76693;SDS011;65625;52.136;5.424;2023-03-01T17:07:34;5.93;;;2.75;;
76693;SDS011;65625;52.136;5.424;2023-03-01T17:10:02;5.45;;;2.67;;
76693;SDS011;65625;52.136;5.424;2023-03-01T17:12:31;6.10;;;2.58;;
76693;SDS011;65625;52.136;5.424;2023-03-01T17:14:58;6.25;;;2.92;;
76693;SDS011;65625;52.136;5.424;2023-03-01T17:17:25;7.75;;;2.83;;
76693;SDS011;65625;52.136;5.424;2023-03-01T17:19:52;5.93;;;3.08;;
76693;SDS011;65625;52.136;5.424;2023-03-01T17:22:19;6.05;;;2.60;;